sensor_id;sensor_type;location;lat;lon;timestamp;pressure;altitude;pressure_sealevel;temperature;humidity
51178;BME280;37243;49.814;8.652;2022-09-03T00:00:08;99821.22;;;27.99;35.92
51178;BME280;37243;49.814;8.652;2022-09-03T00:02:40;99822.34;;;27.98;35.30
51178;BME280;37243;49.814;8.652;2022-09-03T00:05:16;99824.66;;;27.96;35.74
51178;BME280;37243;49.814;8.652;2022-09-03T00:07:53;99817.97;;;27.97;35.99
51178;BME280;37243;49.814;8.652;2022-09-03T00:10:28;99816.84;;;27.98;35.37
51178;BME280;37243;49.814;8.652;2022-09-03T00:13:01;99820.75;;;27.97;35.33
51178;BME280;37243;49.814;8.652;2022-09-03T00:15:35;99821.22;;;27.99;36.04
51178;BME280;37243;49.814;8.652;2022-09-03T00:18:09;99820.84;;;28.00;35.80
51178;BME280;37243;49.814;8.652;2022-09-03T00:20:42;99814.09;;;27.98;35.87
51178;BME280;37243;49.814;8.652;2022-09-03T00:23:17;99813.28;;;27.97;35.95
51178;BME280;37243;49.814;8.652;2022-09-03T00:25:50;99807.41;;;27.99;35.29
51178;BME280;37243;49.814;8.652;2022-09-03T00:28:24;99813.63;;;27.96;35.76
51178;BME280;37243;49.814;8.652;2022-09-03T00:31:03;99808.13;;;27.96;35.69
51178;BME280;37243;49.814;8.652;2022-09-03T00:33:33;99804.91;;;27.94;35.68
51178;BME280;37243;49.814;8.652;2022-09-03T00:36:09;99806.41;;;27.91;35.53
51178;BME280;37243;49.814;8.652;2022-09-03T00:38:40;99809.63;;;27.93;35.66
51178;BME280;37243;49.814;8.652;2022-09-03T00:41:17;99802.06;;;27.90;36.00
51178;BME280;37243;49.814;8.652;2022-09-03T00:44:06;99800.81;;;27.88;35.96
51178;BME280;37243;49.814;8.652;2022-09-03T00:46:45;99800.34;;;27.86;36.00
51178;BME280;37243;49.814;8.652;2022-09-03T00:49:26;99803.09;;;27.86;36.26
51178;BME280;37243;49.814;8.652;2022-09-03T00:52:02;99801.53;;;27.85;36.20
51178;BME280;37243;49.814;8.652;2022-09-03T00:54:41;99815.63;;;27.83;35.61
51178;BME280;37243;49.814;8.652;2022-09-03T00:57:22;99816.06;;;27.85;35.81
51178;BME280;37243;49.814;8.652;2022-09-03T01:00:04;99826.66;;;27.83;35.79
51178;BME280;37243;49.814;8.652;2022-09-03T01:02:46;99826.06;;;27.90;36.11
51178;BME280;37243;49.814;8.652;2022-09-03T01:05:27;99829.09;;;27.85;36.14
51178;BME280;37243;49.814;8.652;2022-09-03T01:08:08;99823.66;;;27.88;35.70
51178;BME280;37243;49.814;8.652;2022-09-03T01:10:46;99826.06;;;27.90;36.02
51178;BME280;37243;49.814;8.652;2022-09-03T01:13:21;99821.25;;;27.87;35.81
51178;BME280;37243;49.814;8.652;2022-09-03T01:15:57;99815.75;;;27.87;35.38
51178;BME280;37243;49.814;8.652;2022-09-03T01:18:37;99818.06;;;27.85;35.38
51178;BME280;37243;49.814;8.652;2022-09-03T01:21:24;99816.44;;;27.84;35.96
51178;BME280;37243;49.814;8.652;2022-09-03T01:24:12;99819.53;;;27.82;36.15
51178;BME280;37243;49.814;8.652;2022-09-03T01:27:04;99811.63;;;27.81;35.55
51178;BME280;37243;49.814;8.652;2022-09-03T01:29:48;99808.06;;;27.80;35.79
51178;BME280;37243;49.814;8.652;2022-09-03T01:32:24;99809.13;;;27.76;35.91
51178;BME280;37243;49.814;8.652;2022-09-03T01:35:00;99811.53;;;27.77;35.41
51178;BME280;37243;49.814;8.652;2022-09-03T01:37:38;99796.94;;;27.77;36.28
51178;BME280;37243;49.814;8.652;2022-09-03T01:40:17;99807.50;;;27.75;35.85
51178;BME280;37243;49.814;8.652;2022-09-03T01:43:06;99803.50;;;27.72;35.60
51178;BME280;37243;49.814;8.652;2022-09-03T01:45:50;99799.94;;;27.72;35.94
51178;BME280;37243;49.814;8.652;2022-09-03T01:48:37;99805.13;;;27.73;35.95
51178;BME280;37243;49.814;8.652;2022-09-03T01:51:14;99805.19;;;27.77;36.10
51178;BME280;37243;49.814;8.652;2022-09-03T01:54:19;99799.69;;;27.77;35.72
51178;BME280;37243;49.814;8.652;2022-09-03T02:00:02;99815.34;;;27.73;36.22
51178;BME280;37243;49.814;8.652;2022-09-03T02:02:34;99821.28;;;27.75;35.95
51178;BME280;37243;49.814;8.652;2022-09-03T02:05:05;99822.53;;;27.77;36.23
51178;BME280;37243;49.814;8.652;2022-09-03T02:07:37;99826.56;;;27.80;36.10
51178;BME280;37243;49.814;8.652;2022-09-03T02:10:08;99816.44;;;27.84;35.46
51178;BME280;37243;49.814;8.652;2022-09-03T02:12:40;99818.75;;;27.82;35.56
51178;BME280;37243;49.814;8.652;2022-09-03T02:15:13;99821.50;;;27.82;35.63
51178;BME280;37243;49.814;8.652;2022-09-03T02:17:46;99822.22;;;27.79;35.86
51178;BME280;37243;49.814;8.652;2022-09-03T02:20:18;99821.84;;;27.80;35.80
51178;BME280;37243;49.814;8.652;2022-09-03T02:22:48;99817.13;;;27.81;36.14
51178;BME280;37243;49.814;8.652;2022-09-03T02:25:18;99821.03;;;27.80;35.64
51178;BME280;37243;49.814;8.652;2022-09-03T02:27:49;99824.28;;;27.82;35.39
51178;BME280;37243;49.814;8.652;2022-09-03T02:30:18;99826.47;;;27.76;36.20
51178;BME280;37243;49.814;8.652;2022-09-03T02:32:49;99829.69;;;27.78;36.12
51178;BME280;37243;49.814;8.652;2022-09-03T02:35:17;99826.91;;;27.78;35.81
51178;BME280;37243;49.814;8.652;2022-09-03T02:37:46;99821.75;;;27.77;35.70
51178;BME280;37243;49.814;8.652;2022-09-03T02:40:14;99828.75;;;27.74;35.89
51178;BME280;37243;49.814;8.652;2022-09-03T02:42:43;99829.56;;;27.75;35.45
51178;BME280;37243;49.814;8.652;2022-09-03T02:45:19;99824.06;;;27.75;35.75
51178;BME280;37243;49.814;8.652;2022-09-03T02:47:55;99829.56;;;27.75;35.46
51178;BME280;37243;49.814;8.652;2022-09-03T02:50:24;99829.94;;;27.73;35.77
51178;BME280;37243;49.814;8.652;2022-09-03T02:52:53;99828.31;;;27.72;35.72
51178;BME280;37243;49.814;8.652;2022-09-03T02:55:21;99816.47;;;27.72;36.25
51178;BME280;37243;49.814;8.652;2022-09-03T02:57:50;99821.56;;;27.70;35.62
51178;BME280;37243;49.814;8.652;2022-09-03T03:00:18;99826.38;;;27.73;36.16
51178;BME280;37243;49.814;8.652;2022-09-03T03:02:46;99830.25;;;27.72;35.59
51178;BME280;37243;49.814;8.652;2022-09-03T03:05:25;99820.84;;;27.73;35.57
51178;BME280;37243;49.814;8.652;2022-09-03T03:07:54;99820.03;;;27.72;35.69
51178;BME280;37243;49.814;8.652;2022-09-03T03:10:23;99821.19;;;27.71;35.77
51178;BME280;37243;49.814;8.652;2022-09-03T03:12:52;99829.13;;;27.73;35.60
51178;BME280;37243;49.814;8.652;2022-09-03T03:15:20;99823.59;;;27.73;35.92
51178;BME280;37243;49.814;8.652;2022-09-03T03:17:49;99820.03;;;27.72;36.18
51178;BME280;37243;49.814;8.652;2022-09-03T03:20:20;99825.19;;;27.74;36.23
51178;BME280;37243;49.814;8.652;2022-09-03T03:22:48;99820.16;;;27.76;35.45
51178;BME280;37243;49.814;8.652;2022-09-03T03:25:16;99813.03;;;27.75;36.23
51178;BME280;37243;49.814;8.652;2022-09-03T03:27:45;99812.91;;;27.71;35.79
51178;BME280;37243;49.814;8.652;2022-09-03T03:30:13;99803.63;;;27.76;35.91
51178;BME280;37243;49.814;8.652;2022-09-03T03:32:41;99804.06;;;27.78;35.48
51178;BME280;37243;49.814;8.652;2022-09-03T03:35:10;99802.44;;;27.77;36.20
51178;BME280;37243;49.814;8.652;2022-09-03T03:37:40;99802.09;;;27.78;35.43
51178;BME280;37243;49.814;8.652;2022-09-03T03:40:10;99814.81;;;27.83;35.75
51178;BME280;37243;49.814;8.652;2022-09-03T03:42:40;99813.94;;;27.79;35.56
51178;BME280;37243;49.814;8.652;2022-09-03T03:45:08;99820.59;;;27.78;35.66
51178;BME280;37243;49.814;8.652;2022-09-03T03:47:37;99826.56;;;27.80;35.86
51178;BME280;37243;49.814;8.652;2022-09-03T03:50:06;99817.13;;;27.81;35.64
51178;BME280;37243;49.814;8.652;2022-09-03T03:52:34;99816.78;;;27.82;35.43
51178;BME280;37243;49.814;8.652;2022-09-03T03:55:06;99825.03;;;27.82;35.29
51178;BME280;37243;49.814;8.652;2022-09-03T03:57:34;99823.47;;;27.81;35.81
51178;BME280;37243;49.814;8.652;2022-09-03T04:00:04;99820.72;;;27.81;36.00
51178;BME280;37243;49.814;8.652;2022-09-03T04:02:33;99828.97;;;27.81;35.82
51178;BME280;37243;49.814;8.652;2022-09-03T04:05:01;99823.56;;;27.85;35.61
51178;BME280;37243;49.814;8.652;2022-09-03T04:07:29;99825.97;;;27.86;35.33
51178;BME280;37243;49.814;8.652;2022-09-03T04:09:58;99830.66;;;27.86;35.72
51178;BME280;37243;49.814;8.652;2022-09-03T04:12:29;99819.19;;;27.84;36.04
51178;BME280;37243;49.814;8.652;2022-09-03T04:14:57;99823.66;;;27.88;35.70
51178;BME280;37243;49.814;8.652;2022-09-03T04:17:26;99824.00;;;27.87;35.94
51178;BME280;37243;49.814;8.652;2022-09-03T04:19:55;99820.00;;;27.84;36.09
51178;BME280;37243;49.814;8.652;2022-09-03T04:22:23;99816.00;;;27.82;35.41
51178;BME280;37243;49.814;8.652;2022-09-03T04:24:52;99818.75;;;27.82;36.05
51178;BME280;37243;49.814;8.652;2022-09-03T04:27:20;99808.44;;;27.79;35.63
51178;BME280;37243;49.814;8.652;2022-09-03T04:29:51;99811.63;;;27.81;36.28
51178;BME280;37243;49.814;8.652;2022-09-03T04:32:22;99803.81;;;27.83;35.42
51178;BME280;37243;49.814;8.652;2022-09-03T04:35:04;99801.41;;;27.81;35.83
51178;BME280;37243;49.814;8.652;2022-09-03T04:37:32;99804.16;;;27.81;35.81
51178;BME280;37243;49.814;8.652;2022-09-03T04:40:00;99809.25;;;27.79;35.59
51178;BME280;37243;49.814;8.652;2022-09-03T04:42:29;99812.44;;;27.81;36.26
51178;BME280;37243;49.814;8.652;2022-09-03T04:45:00;99817.59;;;27.83;35.79
51178;BME280;37243;49.814;8.652;2022-09-03T04:47:28;99817.13;;;27.81;35.62
51178;BME280;37243;49.814;8.652;2022-09-03T04:49:57;99818.75;;;27.82;35.97
51178;BME280;37243;49.814;8.652;2022-09-03T04:52:27;99816.69;;;27.79;35.47
51178;BME280;37243;49.814;8.652;2022-09-03T04:54:57;99821.03;;;27.80;35.83
51178;BME280;37243;49.814;8.652;2022-09-03T04:57:26;99824.28;;;27.82;35.97
51178;BME280;37243;49.814;8.652;2022-09-03T05:00:02;99818.75;;;27.82;35.75
51178;BME280;37243;49.814;8.652;2022-09-03T05:02:30;99817.25;;;27.84;35.72
51178;BME280;37243;49.814;8.652;2022-09-03T05:04:59;99831.84;;;27.85;35.30
51178;BME280;37243;49.814;8.652;2022-09-03T05:07:27;99829.16;;;27.88;35.10
51178;BME280;37243;49.814;8.652;2022-09-03T05:10:04;99828.38;;;27.88;34.84
51178;BME280;37243;49.814;8.652;2022-09-03T05:12:33;99829.25;;;27.92;35.31
51178;BME280;37243;49.814;8.652;2022-09-03T05:15:05;99829.97;;;27.89;35.31
51178;BME280;37243;49.814;8.652;2022-09-03T05:17:34;99836.84;;;27.95;35.06
51178;BME280;37243;49.814;8.652;2022-09-03T05:20:03;99832.94;;;27.96;34.73
51178;BME280;37243;49.814;8.652;2022-09-03T05:22:32;99831.75;;;27.97;34.31
51178;BME280;37243;49.814;8.652;2022-09-03T05:25:01;99834.53;;;27.97;34.48
51178;BME280;37243;49.814;8.652;2022-09-03T05:27:30;99833.38;;;27.98;34.62
51178;BME280;37243;49.814;8.652;2022-09-03T05:29:58;99844.84;;;28.00;34.33
51178;BME280;37243;49.814;8.652;2022-09-03T05:32:31;99851.53;;;27.99;34.88
51178;BME280;37243;49.814;8.652;2022-09-03T05:35:00;99848.69;;;27.95;34.50
51178;BME280;37243;49.814;8.652;2022-09-03T05:37:28;99846.72;;;27.96;34.67
51178;BME280;37243;49.814;8.652;2022-09-03T05:39:56;99847.88;;;27.95;34.57
51178;BME280;37243;49.814;8.652;2022-09-03T05:42:24;99865.66;;;27.97;34.23
51178;BME280;37243;49.814;8.652;2022-09-03T05:44:53;99860.25;;;28.01;34.71
51178;BME280;37243;49.814;8.652;2022-09-03T05:47:22;99858.63;;;28.00;34.12
51178;BME280;37243;49.814;8.652;2022-09-03T05:49:53;99868.41;;;27.97;34.53
51178;BME280;37243;49.814;8.652;2022-09-03T05:52:22;99865.56;;;27.94;33.93
51178;BME280;37243;49.814;8.652;2022-09-03T05:54:50;99869.25;;;27.86;34.16
51178;BME280;37243;49.814;8.652;2022-09-03T05:57:18;99866.06;;;27.84;34.59
51178;BME280;37243;49.814;8.652;2022-09-03T05:59:46;99871.13;;;27.82;34.50
51178;BME280;37243;49.814;8.652;2022-09-03T06:02:15;99878.22;;;27.83;34.66
51178;BME280;37243;49.814;8.652;2022-09-03T06:04:44;99888.81;;;27.81;34.15
51178;BME280;37243;49.814;8.652;2022-09-03T06:07:15;99890.44;;;27.82;34.82
51178;BME280;37243;49.814;8.652;2022-09-03T06:09:43;99889.94;;;27.80;34.78
51178;BME280;37243;49.814;8.652;2022-09-03T06:12:11;99884.91;;;27.82;34.30
51178;BME280;37243;49.814;8.652;2022-09-03T06:14:40;99893.41;;;27.77;34.83
51178;BME280;37243;49.814;8.652;2022-09-03T06:17:08;99895.28;;;27.73;34.75
51178;BME280;37243;49.814;8.652;2022-09-03T06:19:39;99899.06;;;27.68;34.91
51178;BME280;37243;49.814;8.652;2022-09-03T06:22:07;99907.69;;;27.67;35.30
51178;BME280;37243;49.814;8.652;2022-09-03T06:24:38;99906.75;;;27.63;35.56
51178;BME280;37243;49.814;8.652;2022-09-03T06:27:06;99911.25;;;27.67;35.84
51178;BME280;37243;49.814;8.652;2022-09-03T06:29:35;99907.22;;;27.65;35.67
51178;BME280;37243;49.814;8.652;2022-09-03T06:32:04;99915.50;;;27.65;35.97
51178;BME280;37243;49.814;8.652;2022-09-03T06:34:32;99915.50;;;27.65;36.21
51178;BME280;37243;49.814;8.652;2022-09-03T06:37:01;99919.41;;;27.64;35.95
51178;BME280;37243;49.814;8.652;2022-09-03T06:39:29;99915.84;;;27.63;36.02
51178;BME280;37243;49.814;8.652;2022-09-03T06:42:00;99918.25;;;27.65;35.69
51178;BME280;37243;49.814;8.652;2022-09-03T06:44:28;99915.03;;;27.63;36.44
51178;BME280;37243;49.814;8.652;2022-09-03T06:46:57;99926.53;;;27.65;36.14
51178;BME280;37243;49.814;8.652;2022-09-03T06:49:25;99922.97;;;27.64;36.24
51178;BME280;37243;49.814;8.652;2022-09-03T06:51:55;99930.41;;;27.64;35.98
51178;BME280;37243;49.814;8.652;2022-09-03T06:54:24;99935.94;;;27.64;36.98
51178;BME280;37243;49.814;8.652;2022-09-03T06:56:52;99930.41;;;27.64;36.13
51178;BME280;37243;49.814;8.652;2022-09-03T06:59:23;99930.75;;;27.62;36.81
51178;BME280;37243;49.814;8.652;2022-09-03T07:01:52;99932.25;;;27.59;36.88
51178;BME280;37243;49.814;8.652;2022-09-03T07:04:22;99943.28;;;27.59;36.81
51178;BME280;37243;49.814;8.652;2022-09-03T07:06:52;99933.41;;;27.58;37.03
51178;BME280;37243;49.814;8.652;2022-09-03T07:09:20;99930.66;;;27.58;37.08
51178;BME280;37243;49.814;8.652;2022-09-03T07:11:48;99934.91;;;27.56;37.13
51178;BME280;37243;49.814;8.652;2022-09-03T07:14:18;99930.19;;;27.56;37.20
51178;BME280;37243;49.814;8.652;2022-09-03T07:16:49;99933.31;;;27.55;37.47
51178;BME280;37243;49.814;8.652;2022-09-03T07:19:17;99938.44;;;27.56;37.61
51178;BME280;37243;49.814;8.652;2022-09-03T07:21:46;99934.13;;;27.55;37.24
51178;BME280;37243;49.814;8.652;2022-09-03T07:24:14;99937.69;;;27.56;37.00
51178;BME280;37243;49.814;8.652;2022-09-03T07:26:42;99927.44;;;27.56;37.81
51178;BME280;37243;49.814;8.652;2022-09-03T07:29:13;99931.81;;;27.57;37.67
51178;BME280;37243;49.814;8.652;2022-09-03T07:31:44;99929.41;;;27.56;37.69
51178;BME280;37243;49.814;8.652;2022-09-03T07:34:15;99939.16;;;27.53;37.35
51178;BME280;37243;49.814;8.652;2022-09-03T07:36:46;99943.50;;;27.54;37.87
51178;BME280;37243;49.814;8.652;2022-09-03T07:39:16;99935.25;;;27.54;37.88
51178;BME280;37243;49.814;8.652;2022-09-03T07:41:45;99936.50;;;27.57;37.48
51178;BME280;37243;49.814;8.652;2022-09-03T07:44:15;99936.94;;;27.59;37.45
51178;BME280;37243;49.814;8.652;2022-09-03T07:46:44;99925.47;;;27.57;37.69
51178;BME280;37243;49.814;8.652;2022-09-03T07:49:16;99939.25;;;27.57;37.18
51178;BME280;37243;49.814;8.652;2022-09-03T07:51:45;99935.69;;;27.56;37.66
51178;BME280;37243;49.814;8.652;2022-09-03T07:54:15;99934.19;;;27.59;37.64
51178;BME280;37243;49.814;8.652;2022-09-03T07:56:44;99936.63;;;27.60;37.60
51178;BME280;37243;49.814;8.652;2022-09-03T07:59:12;99933.88;;;27.60;37.43
51178;BME280;37243;49.814;8.652;2022-09-03T08:01:41;99938.56;;;27.60;37.76
51178;BME280;37243;49.814;8.652;2022-09-03T08:04:09;99944.88;;;27.60;37.67
51178;BME280;37243;49.814;8.652;2022-09-03T08:06:40;99947.28;;;27.62;37.62
51178;BME280;37243;49.814;8.652;2022-09-03T08:09:10;99955.09;;;27.60;38.14
51178;BME280;37243;49.814;8.652;2022-09-03T08:11:40;99948.09;;;27.63;37.29
51178;BME280;37243;49.814;8.652;2022-09-03T08:14:11;99953.59;;;27.63;38.01
51178;BME280;37243;49.814;8.652;2022-09-03T08:16:43;99963.03;;;27.62;37.96
51178;BME280;37243;49.814;8.652;2022-09-03T08:19:12;99946.50;;;27.62;37.75
51178;BME280;37243;49.814;8.652;2022-09-03T08:21:45;99949.25;;;27.62;37.76
51178;BME280;37243;49.814;8.652;2022-09-03T08:24:15;99937.75;;;27.59;37.73
51178;BME280;37243;49.814;8.652;2022-09-03T08:26:45;99935.38;;;27.58;37.89
51178;BME280;37243;49.814;8.652;2022-09-03T08:29:13;99934.91;;;27.56;37.71
51178;BME280;37243;49.814;8.652;2022-09-03T08:31:42;99931.34;;;27.55;37.78
51178;BME280;37243;49.814;8.652;2022-09-03T08:34:11;99930.19;;;27.56;37.82
51178;BME280;37243;49.814;8.652;2022-09-03T08:36:41;99938.44;;;27.56;37.69
51178;BME280;37243;49.814;8.652;2022-09-03T08:39:14;99934.56;;;27.57;38.18
51178;BME280;37243;49.814;8.652;2022-09-03T08:42:16;99935.25;;;27.54;38.31
51178;BME280;37243;49.814;8.652;2022-09-03T08:44:49;99936.75;;;27.52;38.26
51178;BME280;37243;49.814;8.652;2022-09-03T08:47:22;99937.56;;;27.52;38.18
51178;BME280;37243;49.814;8.652;2022-09-03T08:49:55;99948.47;;;27.49;38.17
51178;BME280;37243;49.814;8.652;2022-09-03T08:52:31;99955.47;;;27.46;39.04
51178;BME280;37243;49.814;8.652;2022-09-03T08:55:16;99950.28;;;27.45;38.73
51178;BME280;37243;49.814;8.652;2022-09-03T08:57:47;99956.59;;;27.45;38.50
51178;BME280;37243;49.814;8.652;2022-09-03T09:00:16;99962.13;;;27.45;39.00
51178;BME280;37243;49.814;8.652;2022-09-03T09:02:52;99965.81;;;27.49;38.49
51178;BME280;37243;49.814;8.652;2022-09-03T09:05:27;99957.88;;;27.48;38.70
51178;BME280;37243;49.814;8.652;2022-09-03T09:08:06;99964.19;;;27.48;38.25
51178;BME280;37243;49.814;8.652;2022-09-03T09:10:45;99965.81;;;27.49;38.87
51178;BME280;37243;49.814;8.652;2022-09-03T09:13:21;99978.41;;;27.50;38.14
51178;BME280;37243;49.814;8.652;2022-09-03T09:15:57;99977.72;;;27.53;38.07
51178;BME280;37243;49.814;8.652;2022-09-03T09:18:36;99977.38;;;27.55;38.17
51178;BME280;37243;49.814;8.652;2022-09-03T09:21:13;99976.69;;;27.58;38.84
51178;BME280;37243;49.814;8.652;2022-09-03T09:23:44;99978.78;;;27.61;38.15
51178;BME280;37243;49.814;8.652;2022-09-03T09:26:17;99984.72;;;27.63;38.72
51178;BME280;37243;49.814;8.652;2022-09-03T09:28:52;99992.53;;;27.61;38.49
51178;BME280;37243;49.814;8.652;2022-09-03T09:31:22;99992.06;;;27.59;38.62
51178;BME280;37243;49.814;8.652;2022-09-03T09:33:50;99998.50;;;27.63;38.22
51178;BME280;37243;49.814;8.652;2022-09-03T09:36:19;99985.41;;;27.60;38.31
51178;BME280;37243;49.814;8.652;2022-09-03T09:38:49;99995.41;;;27.65;38.84
51178;BME280;37243;49.814;8.652;2022-09-03T09:41:20;99992.19;;;27.63;38.17
51178;BME280;37243;49.814;8.652;2022-09-03T09:43:59;99987.94;;;27.65;38.77
51178;BME280;37243;49.814;8.652;2022-09-03T09:46:33;99985.78;;;27.58;38.63
51178;BME280;37243;49.814;8.652;2022-09-03T09:49:08;99988.97;;;27.60;38.54
51178;BME280;37243;49.814;8.652;2022-09-03T09:51:59;99977.97;;;27.60;38.86
51178;BME280;37243;49.814;8.652;2022-09-03T09:54:28;99978.41;;;27.63;38.63
51178;BME280;37243;49.814;8.652;2022-09-03T09:57:03;99979.34;;;27.67;39.60
51178;BME280;37243;49.814;8.652;2022-09-03T09:59:33;99983.00;;;27.71;38.96
51178;BME280;37243;49.814;8.652;2022-09-03T10:02:08;99997.56;;;27.71;39.88
51178;BME280;37243;49.814;8.652;2022-09-03T10:04:37;100008.28;;;27.73;39.53
51178;BME280;37243;49.814;8.652;2022-09-03T10:07:21;99992.63;;;27.77;39.66
51178;BME280;37243;49.814;8.652;2022-09-03T10:10:00;99987.13;;;27.77;39.87
51178;BME280;37243;49.814;8.652;2022-09-03T10:12:35;99986.91;;;27.82;39.70
51178;BME280;37243;49.814;8.652;2022-09-03T10:15:17;99992.63;;;27.77;40.11
51178;BME280;37243;49.814;8.652;2022-09-03T10:17:54;99986.09;;;27.81;40.35
51178;BME280;37243;49.814;8.652;2022-09-03T10:20:30;99977.13;;;27.84;39.92
51178;BME280;37243;49.814;8.652;2022-09-03T10:23:08;99987.34;;;27.84;39.75
51178;BME280;37243;49.814;8.652;2022-09-03T10:25:44;99981.03;;;27.83;40.56
51178;BME280;37243;49.814;8.652;2022-09-03T10:28:20;99976.31;;;27.84;39.94
51178;BME280;37243;49.814;8.652;2022-09-03T10:31:03;99982.66;;;27.84;40.15
51178;BME280;37243;49.814;8.652;2022-09-03T10:33:39;99987.00;;;27.85;40.16
51178;BME280;37243;49.814;8.652;2022-09-03T10:36:17;99976.78;;;27.86;40.01
51178;BME280;37243;49.814;8.652;2022-09-03T10:38:53;99980.78;;;27.88;39.92
51178;BME280;37243;49.814;8.652;2022-09-03T10:41:35;99983.91;;;27.87;39.27
51178;BME280;37243;49.814;8.652;2022-09-03T10:44:28;99982.84;;;27.91;39.64
51178;BME280;37243;49.814;8.652;2022-09-03T10:47:08;99968.72;;;27.93;39.89
51178;BME280;37243;49.814;8.652;2022-09-03T10:49:48;99976.19;;;27.92;39.99
51178;BME280;37243;49.814;8.652;2022-09-03T10:52:26;99980.22;;;27.95;40.38
51178;BME280;37243;49.814;8.652;2022-09-03T10:55:09;99980.31;;;27.98;40.29
51178;BME280;37243;49.814;8.652;2022-09-03T10:57:48;99985.84;;;27.98;40.81
51178;BME280;37243;49.814;8.652;2022-09-03T11:00:21;99968.59;;;28.01;40.92
51178;BME280;37243;49.814;8.652;2022-09-03T11:05:57;99957.91;;;28.00;40.90
51178;BME280;37243;49.814;8.652;2022-09-03T11:08:31;99967.13;;;28.04;40.24
51178;BME280;37243;49.814;8.652;2022-09-03T11:11:08;99956.53;;;28.06;39.97
51178;BME280;37243;49.814;8.652;2022-09-03T11:13:41;99959.78;;;28.08;40.26
51178;BME280;37243;49.814;8.652;2022-09-03T11:16:18;99962.06;;;28.06;40.18
51178;BME280;37243;49.814;8.652;2022-09-03T11:18:49;99958.16;;;28.07;39.94
51178;BME280;37243;49.814;8.652;2022-09-03T11:21:21;99962.06;;;28.06;39.97
51178;BME280;37243;49.814;8.652;2022-09-03T11:23:55;99955.63;;;28.02;40.11
51178;BME280;37243;49.814;8.652;2022-09-03T11:26:25;99962.53;;;27.96;40.24
51178;BME280;37243;49.814;8.652;2022-09-03T11:28:58;99958.72;;;28.00;39.93
51178;BME280;37243;49.814;8.652;2022-09-03T11:31:44;99949.06;;;28.06;39.80
51178;BME280;37243;49.814;8.652;2022-09-03T11:34:15;99947.81;;;28.04;40.52
51178;BME280;37243;49.814;8.652;2022-09-03T11:37:04;99952.97;;;28.05;40.18
51178;BME280;37243;49.814;8.652;2022-09-03T11:39:35;99950.59;;;28.04;39.88
51178;BME280;37243;49.814;8.652;2022-09-03T11:42:10;99939.28;;;28.09;40.45
51178;BME280;37243;49.814;8.652;2022-09-03T11:44:41;99934.69;;;28.13;40.20
51178;BME280;37243;49.814;8.652;2022-09-03T11:47:20;99934.69;;;28.13;39.76
51178;BME280;37243;49.814;8.652;2022-09-03T11:49:50;99931.94;;;28.13;40.39
51178;BME280;37243;49.814;8.652;2022-09-03T11:52:25;99929.63;;;28.15;40.12
51178;BME280;37243;49.814;8.652;2022-09-03T11:54:54;99935.97;;;28.03;40.46
51178;BME280;37243;49.814;8.652;2022-09-03T11:57:26;99932.53;;;27.94;40.21
51178;BME280;37243;49.814;8.652;2022-09-03T12:00:07;99926.00;;;27.87;40.74
51178;BME280;37243;49.814;8.652;2022-09-03T12:02:44;99927.50;;;27.84;40.60
51178;BME280;37243;49.814;8.652;2022-09-03T12:05:21;99935.53;;;27.89;41.09
51178;BME280;37243;49.814;8.652;2022-09-03T12:10:50;99927.16;;;27.86;41.15
51178;BME280;37243;49.814;8.652;2022-09-03T12:13:37;99928.31;;;27.85;40.70
51178;BME280;37243;49.814;8.652;2022-09-03T12:16:35;99928.53;;;27.80;40.73
51178;BME280;37243;49.814;8.652;2022-09-03T12:19:16;99927.25;;;27.89;40.19
51178;BME280;37243;49.814;8.652;2022-09-03T12:21:47;99923.81;;;27.92;40.01
51178;BME280;37243;49.814;8.652;2022-09-03T12:24:17;99926.22;;;27.94;40.54
51178;BME280;37243;49.814;8.652;2022-09-03T12:26:47;99916.53;;;28.00;41.23
51178;BME280;37243;49.814;8.652;2022-09-03T12:29:22;99928.97;;;28.06;40.93
51178;BME280;37243;49.814;8.652;2022-09-03T12:31:51;99926.22;;;28.06;41.13
51178;BME280;37243;49.814;8.652;2022-09-03T12:34:23;99925.06;;;28.07;40.32
51178;BME280;37243;49.814;8.652;2022-09-03T12:36:53;99921.34;;;28.03;41.04
51178;BME280;37243;49.814;8.652;2022-09-03T12:39:23;99919.19;;;28.08;40.09
51178;BME280;37243;49.814;8.652;2022-09-03T12:41:55;99911.72;;;28.09;40.61
51178;BME280;37243;49.814;8.652;2022-09-03T12:44:26;99910.13;;;28.08;40.61
51178;BME280;37243;49.814;8.652;2022-09-03T12:47:00;99908.16;;;28.08;40.46
51178;BME280;37243;49.814;8.652;2022-09-03T12:49:36;99917.13;;;28.05;40.61
51178;BME280;37243;49.814;8.652;2022-09-03T12:52:10;99907.81;;;28.10;40.23
51178;BME280;37243;49.814;8.652;2022-09-03T12:54:47;99909.41;;;28.11;40.47
51178;BME280;37243;49.814;8.652;2022-09-03T12:57:20;99908.97;;;28.09;40.15
51178;BME280;37243;49.814;8.652;2022-09-03T12:59:53;99912.53;;;28.09;40.52
51178;BME280;37243;49.814;8.652;2022-09-03T13:02:26;99911.81;;;28.12;40.24
51178;BME280;37243;49.814;8.652;2022-09-03T13:04:59;99911.03;;;28.12;40.28
51178;BME280;37243;49.814;8.652;2022-09-03T13:07:32;99919.56;;;28.07;40.45
51178;BME280;37243;49.814;8.652;2022-09-03T13:10:05;99926.22;;;28.06;39.72
51178;BME280;37243;49.814;8.652;2022-09-03T13:12:42;99917.22;;;28.09;40.45
51178;BME280;37243;49.814;8.652;2022-09-03T13:15:18;99934.59;;;28.09;40.66
51178;BME280;37243;49.814;8.652;2022-09-03T13:18:00;99921.94;;;28.08;40.14
51178;BME280;37243;49.814;8.652;2022-09-03T13:20:42;99915.66;;;28.08;40.98
51178;BME280;37243;49.814;8.652;2022-09-03T13:23:48;99923.94;;;28.08;40.12
51178;BME280;37243;49.814;8.652;2022-09-03T13:26:27;99925.06;;;28.07;40.28
51178;BME280;37243;49.814;8.652;2022-09-03T13:29:21;99922.75;;;28.09;40.07
51178;BME280;37243;49.814;8.652;2022-09-03T13:31:55;99928.63;;;28.07;39.97
51178;BME280;37243;49.814;8.652;2022-09-03T13:34:30;99927.47;;;28.08;40.71
51178;BME280;37243;49.814;8.652;2022-09-03T13:37:11;99925.50;;;28.09;40.65
51178;BME280;37243;49.814;8.652;2022-09-03T13:39:47;99921.59;;;28.10;39.87